Time;durP1;ratioP1;P1;durP2;ratioP2;P2;SDS_P1;SDS_P2;PMS_P1;PMS_P2;Temp;Humidity;BMP_temperature;BMP_pressure;BME280_temperature;BME280_humidity;BME280_pressure;Samples;Min_cycle;Max_cycle;Signal;HPM_P1;HPM_P2
2023/09/12 00:00:48;;;;;;;31.37;28.97;;;18.60;99.90;;;;;;4740429;30;20592;-54
2023/09/12 00:03:14;;;;;;;31.00;28.20;;;18.60;99.90;;;;;;4740371;30;20200;-53
2023/09/12 00:05:40;;;;;;;31.87;29.27;;;18.60;99.90;;;;;;4740305;30;20442;-53
2023/09/12 00:08:06;;;;;;;31.30;28.80;;;18.60;99.90;;;;;;4739911;30;21342;-54
2023/09/12 00:10:32;;;;;;;31.17;28.67;;;18.50;99.90;;;;;;4740381;30;20247;-53
2023/09/12 00:13:02;;;;;;;29.60;27.30;;;18.50;99.90;;;;;;4739809;30;20504;-55
2023/09/12 00:15:28;;;;;;;31.57;28.87;;;18.50;99.90;;;;;;4739321;30;20423;-55
2023/09/12 00:17:53;;;;;;;32.30;29.50;;;18.50;99.90;;;;;;4739338;30;20559;-55
2023/09/12 00:20:19;;;;;;;31.10;28.70;;;18.40;99.90;;;;;;4739286;30;20974;-54
2023/09/12 00:22:45;;;;;;;30.83;28.17;;;18.40;99.90;;;;;;4738584;30;20192;-53
2023/09/12 00:25:11;;;;;;;31.07;28.67;;;18.30;99.90;;;;;;4740685;30;20196;-54
2023/09/12 00:27:36;;;;;;;31.17;28.67;;;18.30;99.90;;;;;;4739710;30;20434;-55
2023/09/12 00:30:03;;;;;;;32.20;29.60;;;18.30;99.90;;;;;;4740316;30;20201;-55
2023/09/12 00:32:28;;;;;;;31.47;28.57;;;18.20;99.90;;;;;;4740014;30;20212;-50
2023/09/12 00:34:54;;;;;;;31.47;28.90;;;18.20;99.90;;;;;;4740007;30;20461;-53
2023/09/12 00:37:19;;;;;;;30.63;28.03;;;18.20;99.90;;;;;;4740691;30;20212;-54
2023/09/12 00:39:47;;;;;;;32.67;29.97;;;18.20;99.90;;;;;;4740317;30;20283;-54
2023/09/12 00:42:12;;;;;;;33.30;30.43;;;18.10;99.90;;;;;;4740228;30;20295;-50
2023/09/12 00:44:38;;;;;;;32.90;30.30;;;18.10;99.90;;;;;;4739262;30;20468;-55
2023/09/12 00:47:04;;;;;;;32.07;29.33;;;18.10;99.90;;;;;;4739446;30;20201;-52
2023/09/12 00:49:30;;;;;;;32.97;30.00;;;18.00;99.90;;;;;;4753971;30;20211;-53
2023/09/12 00:51:56;;;;;;;32.80;29.90;;;18.00;99.90;;;;;;4740424;30;20478;-49
2023/09/12 00:54:22;;;;;;;32.83;30.03;;;17.90;99.90;;;;;;4742604;30;20447;-53
2023/09/12 00:56:48;;;;;;;32.03;29.43;;;17.90;99.90;;;;;;4743153;30;20510;-52
2023/09/12 00:59:17;;;;;;;32.57;29.80;;;17.90;99.90;;;;;;4742585;30;20188;-51
2023/09/12 01:01:43;;;;;;;32.43;29.50;;;17.90;99.90;;;;;;4742552;30;20229;-52
2023/09/12 01:04:10;;;;;;;32.27;29.67;;;17.90;99.90;;;;;;4742574;30;20462;-52
2023/09/12 01:06:36;;;;;;;33.43;30.50;;;17.80;99.90;;;;;;4742262;30;20456;-50
2023/09/12 01:09:02;;;;;;;32.17;29.47;;;17.80;99.90;;;;;;4741960;30;20489;-56
2023/09/12 01:11:28;;;;;;;32.40;29.70;;;17.80;99.90;;;;;;4741509;30;21163;-55
2023/09/12 01:13:54;;;;;;;32.47;29.73;;;17.80;99.90;;;;;;4741275;30;20192;-51
2023/09/12 01:16:19;;;;;;;32.83;30.03;;;17.80;99.90;;;;;;4755227;30;20491;-52
2023/09/12 01:18:45;;;;;;;32.40;29.47;;;17.70;99.90;;;;;;4741849;30;20716;-51
2023/09/12 01:21:42;;;;;;;31.30;28.70;;;17.70;99.90;;;;;;4742844;30;20185;-56
2023/09/12 01:24:29;;;;;;;32.00;29.20;;;17.70;99.90;;;;;;4741964;30;20442;-51
2023/09/12 01:27:13;;;;;;;33.17;30.27;;;17.70;99.90;;;;;;4741953;30;20545;-53
2023/09/12 01:29:39;;;;;;;31.90;28.80;;;17.60;99.90;;;;;;4742158;30;20507;-54
2023/09/12 01:32:05;;;;;;;32.97;30.17;;;17.60;99.90;;;;;;4742146;30;20500;-53
2023/09/12 01:34:31;;;;;;;32.00;29.20;;;17.60;99.90;;;;;;4741085;30;20814;-52
2023/09/12 01:36:56;;;;;;;32.07;29.53;;;17.60;99.90;;;;;;4741529;30;20453;-52
2023/09/12 01:39:22;;;;;;;32.33;29.47;;;17.60;99.90;;;;;;4741436;30;20188;-57
2023/09/12 01:41:49;;;;;;;31.37;28.70;;;17.50;99.90;;;;;;4741709;30;20283;-51
2023/09/12 01:44:16;;;;;;;33.57;30.57;;;17.50;99.90;;;;;;4741884;30;20307;-55
2023/09/12 01:46:43;;;;;;;32.67;29.83;;;17.50;99.90;;;;;;4732015;30;20477;-52
2023/09/12 01:49:10;;;;;;;32.23;29.63;;;17.40;99.90;;;;;;4741519;30;20461;-55
2023/09/12 01:51:37;;;;;;;31.60;29.00;;;17.40;99.90;;;;;;4742279;30;20478;-55
2023/09/12 01:54:03;;;;;;;33.77;30.63;;;17.40;99.90;;;;;;4741500;30;21715;-45
2023/09/12 01:56:30;;;;;;;33.17;30.20;;;17.40;99.90;;;;;;4741497;30;20435;-55
2023/09/12 01:58:56;;;;;;;32.07;29.30;;;17.30;99.90;;;;;;4741733;30;20449;-52
2023/09/12 02:01:22;;;;;;;32.27;29.57;;;17.30;99.90;;;;;;4741603;30;20458;-53
2023/09/12 02:03:47;;;;;;;34.33;31.10;;;17.30;99.90;;;;;;4741227;30;20465;-55
2023/09/12 02:06:13;;;;;;;32.90;30.10;;;17.20;99.90;;;;;;4739383;30;20935;-52
2023/09/12 02:08:39;;;;;;;33.67;30.80;;;17.20;99.90;;;;;;4741226;30;20204;-53
2023/09/12 02:11:04;;;;;;;33.67;30.70;;;17.20;99.90;;;;;;4741884;30;20193;-54
2023/09/12 02:13:30;;;;;;;33.97;30.90;;;17.20;99.90;;;;;;4741341;30;20199;-53
2023/09/12 02:16:03;;;;;;;32.93;30.00;;;17.10;99.90;;;;;;4740690;30;20240;-51
2023/09/12 02:18:28;;;;;;;32.77;29.87;;;17.10;99.90;;;;;;4740653;30;20192;-52
2023/09/12 02:20:54;;;;;;;33.40;30.50;;;17.10;99.90;;;;;;4740740;30;20537;-52
2023/09/12 02:23:20;;;;;;;33.67;30.67;;;17.00;99.90;;;;;;4741195;30;20200;-52
2023/09/12 02:25:45;;;;;;;33.93;31.03;;;17.00;99.90;;;;;;4741794;30;20197;-53
2023/09/12 02:28:11;;;;;;;33.37;30.43;;;17.00;99.90;;;;;;4741102;30;20193;-54
2023/09/12 02:30:40;;;;;;;32.90;30.00;;;16.90;99.90;;;;;;4742131;30;20196;-54
2023/09/12 02:33:06;;;;;;;31.07;28.17;;;16.90;99.90;;;;;;4741979;30;20213;-53
2023/09/12 02:35:31;;;;;;;34.47;31.33;;;16.90;99.90;;;;;;4741132;30;20443;-52
2023/09/12 02:37:57;;;;;;;33.37;30.27;;;16.90;99.90;;;;;;4741987;30;20185;-56
2023/09/12 02:40:23;;;;;;;31.80;28.93;;;16.90;99.90;;;;;;4741686;30;20213;-53
2023/09/12 02:42:48;;;;;;;33.53;30.57;;;16.80;99.90;;;;;;4741472;30;20201;-53
2023/09/12 02:45:14;;;;;;;33.90;30.80;;;16.80;99.90;;;;;;4741556;30;20656;-54
2023/09/12 02:47:39;;;;;;;33.67;30.70;;;16.80;99.90;;;;;;4741207;30;20533;-55
2023/09/12 02:50:06;;;;;;;33.00;30.00;;;16.80;99.90;;;;;;4741670;30;20250;-55
2023/09/12 02:52:31;;;;;;;32.20;29.17;;;16.80;99.90;;;;;;4741318;30;20208;-57
2023/09/12 02:54:57;;;;;;;33.50;30.47;;;16.70;99.90;;;;;;4741500;30;20799;-54
2023/09/12 02:57:22;;;;;;;33.50;30.33;;;16.70;99.90;;;;;;4741335;30;20229;-50
2023/09/12 02:59:48;;;;;;;33.13;30.23;;;16.60;99.90;;;;;;4741487;30;20196;-54
2023/09/12 03:02:14;;;;;;;33.60;30.50;;;16.70;99.90;;;;;;4741359;30;20211;-55
2023/09/12 03:04:39;;;;;;;32.10;29.30;;;16.60;99.90;;;;;;4740721;30;20193;-55
2023/09/12 03:07:05;;;;;;;33.50;30.53;;;16.60;99.90;;;;;;4741249;30;20187;-55
2023/09/12 03:09:30;;;;;;;33.60;30.80;;;16.60;99.90;;;;;;4740963;30;20837;-54
2023/09/12 03:11:56;;;;;;;33.20;30.23;;;16.60;99.90;;;;;;4741414;30;20250;-52
2023/09/12 03:14:21;;;;;;;33.77;30.57;;;16.50;99.90;;;;;;4740668;30;20192;-49
2023/09/12 03:16:47;;;;;;;32.20;29.40;;;16.50;99.90;;;;;;4739283;30;20296;-52
2023/09/12 03:19:13;;;;;;;30.93;28.13;;;16.50;99.90;;;;;;4740902;30;20188;-50
2023/09/12 03:21:38;;;;;;;32.47;29.57;;;16.50;99.90;;;;;;4741040;30;20253;-55
2023/09/12 03:24:04;;;;;;;32.97;30.00;;;16.50;99.90;;;;;;4740816;30;20208;-53
2023/09/12 03:26:30;;;;;;;33.20;30.10;;;16.50;99.90;;;;;;4740482;30;20485;-53
2023/09/12 03:28:55;;;;;;;33.30;30.20;;;16.50;99.90;;;;;;4740307;30;20446;-56
2023/09/12 03:31:21;;;;;;;34.80;31.70;;;16.40;99.90;;;;;;4738997;30;20532;-56
2023/09/12 03:33:49;;;;;;;34.13;31.03;;;16.40;99.90;;;;;;4738053;30;20196;-54
2023/09/12 03:36:16;;;;;;;33.43;30.47;;;16.40;99.90;;;;;;4739900;30;20543;-55
2023/09/12 03:38:42;;;;;;;32.77;29.80;;;16.40;99.90;;;;;;4740086;30;20512;-54
2023/09/12 03:41:07;;;;;;;32.20;29.33;;;16.40;99.90;;;;;;4738601;30;20447;-53
2023/09/12 03:43:33;;;;;;;32.00;29.17;;;16.30;99.90;;;;;;4740016;30;20189;-53
2023/09/12 03:45:59;;;;;;;31.63;28.67;;;16.30;99.90;;;;;;4739134;30;20567;-53
2023/09/12 03:48:25;;;;;;;32.87;29.93;;;16.30;99.90;;;;;;4738749;30;20442;-55
2023/09/12 03:50:51;;;;;;;32.57;29.57;;;16.30;99.90;;;;;;4739957;30;20211;-56
2023/09/12 03:53:17;;;;;;;33.40;30.37;;;16.20;99.90;;;;;;4740283;30;20216;-55
2023/09/12 03:55:43;;;;;;;31.93;28.93;;;16.20;99.90;;;;;;4740408;30;20442;-52
2023/09/12 03:58:09;;;;;;;30.97;28.03;;;16.20;99.90;;;;;;4740498;30;20903;-53
2023/09/12 04:00:34;;;;;;;31.70;28.80;;;16.20;99.90;;;;;;4753693;30;20196;-54
2023/09/12 04:03:00;;;;;;;31.57;28.67;;;16.20;99.90;;;;;;4740339;30;20192;-51
2023/09/12 04:05:26;;;;;;;31.50;28.60;;;16.10;99.90;;;;;;4740125;30;20201;-52
2023/09/12 04:07:52;;;;;;;33.10;30.00;;;16.10;99.90;;;;;;4740377;30;20254;-51
2023/09/12 04:10:19;;;;;;;32.47;29.37;;;16.10;99.90;;;;;;4740415;30;20442;-55
2023/09/12 04:12:45;;;;;;;32.07;29.17;;;16.00;99.90;;;;;;4754223;30;20271;-52
2023/09/12 04:15:10;;;;;;;33.20;29.97;;;16.00;99.90;;;;;;4739679;30;20533;-57
2023/09/12 04:17:36;;;;;;;32.00;28.80;;;16.00;99.90;;;;;;4738995;30;20285;-56
2023/09/12 04:20:02;;;;;;;33.80;30.50;;;16.00;99.90;;;;;;4740452;30;20201;-52
2023/09/12 04:22:28;;;;;;;33.47;30.30;;;15.90;99.90;;;;;;4737294;30;20207;-56
2023/09/12 04:24:54;;;;;;;31.70;28.70;;;15.90;99.90;;;;;;4738367;30;20465;-54
2023/09/12 04:27:19;;;;;;;31.90;28.90;;;15.90;99.90;;;;;;4738995;30;20455;-55
2023/09/12 04:29:45;;;;;;;31.23;28.23;;;15.90;99.90;;;;;;4742403;30;20255;-54
2023/09/12 04:32:11;;;;;;;32.30;29.40;;;15.90;99.90;;;;;;4743048;30;20228;-55
2023/09/12 04:34:36;;;;;;;33.93;30.47;;;15.90;99.90;;;;;;4742647;30;21001;-54
2023/09/12 04:37:02;;;;;;;32.90;29.80;;;15.80;99.90;;;;;;4743519;30;20530;-54
2023/09/12 04:39:28;;;;;;;39.00;30.93;;;15.80;99.90;;;;;;4743516;30;20261;-54
2023/09/12 04:41:54;;;;;;;33.70;30.20;;;15.80;99.90;;;;;;4742721;30;21072;-55
2023/09/12 04:44:19;;;;;;;34.70;31.37;;;15.80;99.90;;;;;;4743536;30;20457;-52
2023/09/12 04:46:46;;;;;;;33.53;30.23;;;15.80;99.90;;;;;;4743322;30;20185;-55
2023/09/12 04:49:11;;;;;;;33.63;30.33;;;15.80;99.90;;;;;;4742903;30;20201;-55
2023/09/12 04:51:37;;;;;;;38.37;33.57;;;15.80;99.90;;;;;;4742869;30;20482;-55
2023/09/12 04:54:04;;;;;;;33.40;30.00;;;15.90;99.90;;;;;;4743201;30;20563;-55
2023/09/12 04:56:30;;;;;;;35.00;31.50;;;15.90;99.90;;;;;;4743338;30;20189;-55
2023/09/12 04:58:55;;;;;;;33.67;30.40;;;15.90;99.90;;;;;;4742912;30;20438;-54
2023/09/12 05:01:21;;;;;;;33.30;30.30;;;15.90;99.90;;;;;;4741592;30;20874;-49
2023/09/12 05:03:46;;;;;;;31.83;28.77;;;15.90;99.90;;;;;;4742304;30;20196;-56
2023/09/12 05:06:13;;;;;;;32.13;29.03;;;16.00;99.90;;;;;;4743148;30;20223;-54
2023/09/12 05:08:38;;;;;;;32.20;28.93;;;16.00;99.90;;;;;;4743497;30;20192;-52
2023/09/12 05:11:04;;;;;;;31.60;28.70;;;16.00;99.90;;;;;;4743023;30;20437;-54
2023/09/12 05:13:30;;;;;;;33.57;30.00;;;16.00;99.90;;;;;;4743055;30;21464;-54
2023/09/12 05:15:56;;;;;;;31.53;28.40;;;16.00;99.90;;;;;;4742521;30;20282;-51
2023/09/12 05:18:22;;;;;;;33.13;29.30;;;16.10;99.90;;;;;;4742198;30;20196;-55
2023/09/12 05:20:48;;;;;;;31.97;28.97;;;16.10;99.90;;;;;;4742767;30;20510;-56
2023/09/12 05:23:14;;;;;;;32.80;29.43;;;16.10;99.90;;;;;;4742847;30;20456;-53
2023/09/12 05:25:39;;;;;;;32.50;29.50;;;16.20;99.90;;;;;;4742521;30;20471;-56
2023/09/12 05:28:05;;;;;;;31.57;28.67;;;16.20;99.90;;;;;;4742533;30;20195;-56
2023/09/12 05:30:31;;;;;;;32.00;28.83;;;16.20;99.90;;;;;;4742552;30;20197;-56
2023/09/12 05:32:56;;;;;;;31.63;28.40;;;16.20;99.90;;;;;;4740847;30;20228;-54
2023/09/12 05:35:22;;;;;;;32.20;28.77;;;16.20;99.90;;;;;;4742504;30;20200;-58
2023/09/12 05:37:48;;;;;;;31.63;28.63;;;16.20;99.90;;;;;;4742744;30;20193;-52
2023/09/12 05:40:13;;;;;;;30.03;27.23;;;16.20;99.90;;;;;;4741835;30;20207;-56
2023/09/12 05:42:39;;;;;;;30.47;27.50;;;16.20;99.90;;;;;;4742937;30;20211;-58
2023/09/12 05:45:06;;;;;;;30.00;27.20;;;16.20;99.90;;;;;;4741927;30;20207;-56
2023/09/12 05:47:32;;;;;;;32.83;29.70;;;16.30;99.90;;;;;;4741844;30;20180;-50
2023/09/12 05:49:59;;;;;;;32.47;29.43;;;16.30;99.90;;;;;;4742551;30;20921;-53
2023/09/12 05:52:25;;;;;;;30.97;28.03;;;16.30;99.90;;;;;;4742637;30;20213;-51
2023/09/12 05:54:50;;;;;;;33.20;30.10;;;16.30;99.90;;;;;;4755911;30;20453;-55
2023/09/12 05:57:16;;;;;;;30.73;28.00;;;16.40;99.90;;;;;;4742613;30;20661;-55
2023/09/12 05:59:41;;;;;;;32.30;29.10;;;16.40;99.90;;;;;;4742399;30;20214;-55
2023/09/12 06:02:10;;;;;;;32.03;29.10;;;16.50;99.90;;;;;;4742556;30;20230;-52
2023/09/12 06:04:36;;;;;;;30.80;27.80;;;16.50;99.90;;;;;;4742110;30;20197;-54
2023/09/12 06:07:02;;;;;;;30.03;27.33;;;16.60;99.90;;;;;;4742241;30;20438;-53
2023/09/12 06:09:29;;;;;;;30.50;27.70;;;16.70;99.90;;;;;;4741952;30;20204;-56
2023/09/12 06:11:54;;;;;;;30.40;27.60;;;16.70;99.90;;;;;;4742185;30;20484;-56
2023/09/12 06:14:20;;;;;;;29.73;27.10;;;16.80;99.90;;;;;;4742127;30;20427;-56
2023/09/12 06:16:46;;;;;;;30.60;27.57;;;17.00;99.90;;;;;;4741910;30;21294;-53
2023/09/12 06:19:11;;;;;;;29.70;27.10;;;17.00;99.90;;;;;;4741259;30;20188;-55
2023/09/12 06:21:37;;;;;;;29.20;26.70;;;17.10;99.90;;;;;;4740562;30;20197;-56
2023/09/12 06:24:11;;;;;;;29.40;26.70;;;17.30;99.90;;;;;;4741006;30;20575;-56
2023/09/12 06:26:38;;;;;;;28.93;26.43;;;17.40;99.90;;;;;;4741643;30;20197;-54
2023/09/12 06:29:03;;;;;;;28.87;26.37;;;17.50;99.90;;;;;;4741752;30;20422;-56
2023/09/12 06:31:29;;;;;;;29.53;26.93;;;17.60;99.90;;;;;;4741246;30;20439;-57
2023/09/12 06:33:55;;;;;;;29.33;26.93;;;17.70;99.90;;;;;;4741220;30;20200;-55
2023/09/12 06:36:20;;;;;;;29.67;27.17;;;17.80;99.90;;;;;;4741080;30;20492;-58
2023/09/12 06:38:47;;;;;;;26.73;24.53;;;17.90;99.90;;;;;;4741393;30;20193;-58
2023/09/12 06:41:13;;;;;;;28.70;26.30;;;18.00;99.90;;;;;;4741570;30;20184;-52
2023/09/12 06:43:38;;;;;;;27.40;25.20;;;18.10;99.90;;;;;;4741894;30;20419;-53
2023/09/12 06:46:04;;;;;;;27.90;25.63;;;18.20;99.90;;;;;;4741373;30;20229;-55
2023/09/12 06:48:30;;;;;;;27.90;25.70;;;18.40;99.90;;;;;;4741130;30;20191;-55
2023/09/12 06:50:55;;;;;;;27.73;25.17;;;18.50;99.90;;;;;;4740285;30;20204;-54
2023/09/12 06:53:21;;;;;;;27.10;24.90;;;18.60;99.90;;;;;;4741490;30;20216;-53
2023/09/12 06:55:46;;;;;;;28.20;25.67;;;18.70;99.90;;;;;;4741213;30;20202;-54
2023/09/12 06:58:12;;;;;;;27.00;24.70;;;18.80;99.90;;;;;;4741275;30;20204;-54
2023/09/12 07:00:38;;;;;;;27.33;25.03;;;18.90;99.90;;;;;;4740759;30;20192;-57
2023/09/12 07:03:04;;;;;;;26.60;24.50;;;18.90;99.90;;;;;;4741347;30;20724;-55
2023/09/12 07:05:29;;;;;;;26.20;24.00;;;19.00;99.90;;;;;;4740876;30;20234;-57
2023/09/12 07:07:55;;;;;;;26.07;23.97;;;19.10;99.90;;;;;;4740087;30;21411;-55
2023/09/12 07:10:21;;;;;;;27.00;24.90;;;19.20;99.90;;;;;;4741428;30;20195;-55
2023/09/12 07:12:46;;;;;;;27.17;25.07;;;19.30;99.90;;;;;;4740788;30;20240;-56
2023/09/12 07:15:12;;;;;;;27.20;25.03;;;19.40;99.90;;;;;;4740759;30;20185;-54
2023/09/12 07:17:38;;;;;;;26.93;24.87;;;19.50;99.90;;;;;;4740373;30;21260;-56
2023/09/12 07:20:04;;;;;;;26.60;24.40;;;19.60;99.90;;;;;;4740828;30;20477;-54
2023/09/12 07:22:30;;;;;;;26.33;24.33;;;19.80;99.90;;;;;;4740822;30;20197;-59
2023/09/12 07:24:59;;;;;;;24.80;22.90;;;20.00;99.90;;;;;;4740295;30;20430;-50
2023/09/12 07:27:24;;;;;;;26.10;24.00;;;20.10;99.90;;;;;;4739825;30;20197;-57
2023/09/12 07:29:50;;;;;;;25.43;23.33;;;20.20;99.90;;;;;;4740669;30;20488;-52
2023/09/12 07:32:16;;;;;;;24.87;22.97;;;20.40;99.90;;;;;;4739812;30;20208;-46
2023/09/12 07:34:45;;;;;;;25.87;23.70;;;20.50;99.90;;;;;;4737944;30;20715;-57
2023/09/12 07:37:10;;;;;;;24.77;22.97;;;20.60;99.90;;;;;;4739588;30;20189;-58
2023/09/12 07:39:36;;;;;;;23.90;22.00;;;20.70;99.90;;;;;;4740662;30;20429;-54
2023/09/12 07:42:02;;;;;;;23.53;21.73;;;20.80;99.90;;;;;;4739724;30;20212;-57
2023/09/12 07:44:29;;;;;;;25.10;22.97;;;21.10;99.90;;;;;;4740694;30;20189;-58
2023/09/12 07:46:54;;;;;;;23.53;21.83;;;21.20;99.90;;;;;;4740503;30;20441;-55
2023/09/12 07:49:20;;;;;;;23.83;22.03;;;21.40;99.90;;;;;;4740696;30;20804;-57
2023/09/12 07:51:45;;;;;;;24.57;22.70;;;21.60;99.90;;;;;;4740082;30;20212;-52
2023/09/12 07:54:11;;;;;;;24.57;22.57;;;21.70;99.90;;;;;;4740896;30;20196;-53
2023/09/12 07:56:36;;;;;;;24.43;22.60;;;21.80;99.90;;;;;;4739647;30;20227;-56
2023/09/12 07:59:03;;;;;;;24.37;22.57;;;22.00;99.90;;;;;;4739332;30;20197;-55
2023/09/12 08:01:28;;;;;;;22.60;20.93;;;22.20;99.90;;;;;;4738261;30;20851;-55
2023/09/12 08:03:54;;;;;;;22.63;20.93;;;22.40;99.90;;;;;;4741274;30;20450;-56
2023/09/12 08:06:20;;;;;;;23.73;22.07;;;22.60;99.90;;;;;;4743369;30;20193;-52
2023/09/12 08:08:45;;;;;;;23.53;21.73;;;22.70;99.90;;;;;;4742028;30;20200;-54
2023/09/12 08:11:11;;;;;;;23.77;22.07;;;22.90;99.90;;;;;;4743357;30;20428;-55
2023/09/12 08:13:36;;;;;;;23.40;21.70;;;23.10;99.90;;;;;;4743289;30;20235;-56
2023/09/12 08:16:06;;;;;;;23.23;21.53;;;23.30;99.90;;;;;;4758758;30;20711;-46
2023/09/12 08:18:31;;;;;;;23.30;21.40;;;23.50;99.90;;;;;;4747473;30;20182;-53
2023/09/12 08:20:57;;;;;;;22.90;21.10;;;23.80;99.90;;;;;;4743174;30;20782;-55
2023/09/12 08:23:23;;;;;;;23.53;21.93;;;24.00;99.90;;;;;;4745041;30;20192;-55
2023/09/12 08:25:49;;;;;;;22.30;20.70;;;24.30;99.90;;;;;;4743999;30;20745;-56
2023/09/12 08:28:15;;;;;;;22.57;20.97;;;24.60;99.90;;;;;;4744111;30;20189;-57
2023/09/12 08:30:40;;;;;;;23.33;21.73;;;25.00;99.90;;;;;;4745144;30;20450;-56
2023/09/12 08:33:06;;;;;;;22.73;21.13;;;25.40;99.90;;;;;;4744721;30;20691;-56
2023/09/12 08:35:32;;;;;;;22.57;20.70;;;25.80;99.90;;;;;;4744604;30;20195;-56
2023/09/12 08:37:58;;;;;;;21.67;20.17;;;26.30;97.00;;;;;;4742609;30;20450;-55
2023/09/12 08:40:24;;;;;;;21.93;20.53;;;26.90;95.90;;;;;;4744944;30;20454;-56
2023/09/12 08:42:52;;;;;;;20.90;19.50;;;27.50;93.00;;;;;;4748987;30;20197;-54
2023/09/12 08:45:19;;;;;;;21.47;20.07;;;28.00;90.40;;;;;;4751110;30;20188;-58
2023/09/12 08:47:51;;;;;;;21.60;20.10;;;28.50;85.60;;;;;;4751135;30;20813;-58
2023/09/12 08:50:17;;;;;;;20.63;19.40;;;29.00;78.40;;;;;;4750956;30;20411;-56
2023/09/12 08:52:44;;;;;;;19.60;18.40;;;29.50;73.80;;;;;;4764738;30;20490;-58
2023/09/12 08:55:10;;;;;;;20.50;19.20;;;29.80;67.40;;;;;;4753796;30;20195;-55
2023/09/12 08:57:38;;;;;;;19.97;18.57;;;30.30;63.50;;;;;;4751282;30;20439;-58
2023/09/12 09:00:08;;;;;;;20.73;19.37;;;30.50;59.90;;;;;;4749280;30;20542;-58
2023/09/12 09:02:42;;;;;;;19.03;17.87;;;30.70;58.40;;;;;;4751196;30;20482;-53
2023/09/12 09:05:09;;;;;;;19.20;18.00;;;31.20;54.40;;;;;;4750872;30;20513;-57
2023/09/12 09:07:44;;;;;;;20.23;18.93;;;31.60;50.50;;;;;;4749040;30;20463;-58
2023/09/12 09:10:17;;;;;;;17.30;16.30;;;31.90;49.10;;;;;;4747067;30;20441;-58
2023/09/12 09:12:45;;;;;;;17.57;16.57;;;32.60;44.10;;;;;;4750706;30;20501;-56
2023/09/12 09:15:24;;;;;;;18.93;17.73;;;33.20;41.00;;;;;;4745012;30;20439;-49
2023/09/12 09:17:51;;;;;;;19.87;18.60;;;33.40;40.50;;;;;;4745471;30;20447;-57
2023/09/12 09:20:29;;;;;;;20.60;19.40;;;33.70;40.60;;;;;;4745894;30;20430;-58
2023/09/12 09:23:10;;;;;;;19.83;18.40;;;34.30;39.00;;;;;;4747704;30;20465;-57
2023/09/12 09:25:40;;;;;;;19.43;18.33;;;34.60;36.90;;;;;;4738227;30;20434;-56
2023/09/12 09:28:19;;;;;;;20.10;18.70;;;34.70;37.20;;;;;;4745934;30;20493;-57
2023/09/12 09:30:47;;;;;;;19.80;18.40;;;34.90;37.50;;;;;;4748201;30;21119;-55
2023/09/12 09:33:14;;;;;;;19.10;17.97;;;35.30;35.70;;;;;;4749537;30;20487;-56
2023/09/12 09:35:45;;;;;;;20.57;19.37;;;35.70;34.10;;;;;;4749582;30;20447;-48
2023/09/12 09:38:16;;;;;;;20.63;19.30;;;35.40;32.60;;;;;;4749905;30;20496;-57
2023/09/12 09:40:43;;;;;;;18.87;17.87;;;35.40;33.40;;;;;;4749171;30;20443;-57
2023/09/12 09:43:09;;;;;;;17.93;17.00;;;35.80;32.30;;;;;;4749124;30;20924;-57
2023/09/12 09:45:43;;;;;;;18.90;17.90;;;35.60;32.20;;;;;;4747676;30;20434;-58
2023/09/12 09:48:09;;;;;;;18.97;17.97;;;35.70;31.50;;;;;;4747567;30;20426;-56
2023/09/12 09:50:38;;;;;;;17.93;17.03;;;35.70;31.10;;;;;;4743480;30;20446;-57
2023/09/12 09:53:06;;;;;;;19.70;18.60;;;36.10;30.20;;;;;;4748337;30;20521;-57
2023/09/12 09:55:32;;;;;;;18.30;17.20;;;36.00;30.80;;;;;;4747875;30;20470;-57
2023/09/12 09:57:58;;;;;;;18.33;17.33;;;36.40;29.10;;;;;;4748301;30;20481;-57
2023/09/12 10:00:24;;;;;;;18.37;17.27;;;36.80;28.50;;;;;;4748686;30;20199;-56
2023/09/12 10:02:52;;;;;;;18.00;16.90;;;36.90;27.70;;;;;;4749008;30;20192;-58
2023/09/12 10:05:18;;;;;;;15.63;14.83;;;37.30;27.50;;;;;;4748613;30;20443;-58
2023/09/12 10:07:49;;;;;;;16.63;15.73;;;37.40;25.40;;;;;;4749734;30;20423;-57
2023/09/12 10:10:16;;;;;;;17.60;16.60;;;37.40;24.20;;;;;;4744255;30;20546;-56
2023/09/12 10:12:49;;;;;;;18.50;17.20;;;37.80;24.90;;;;;;4749002;30;20486;-58
2023/09/12 10:15:20;;;;;;;16.93;16.00;;;37.90;24.50;;;;;;4746454;30;20819;-58
2023/09/12 10:17:51;;;;;;;16.80;15.80;;;38.10;23.30;;;;;;4749527;30;20490;-57
2023/09/12 10:20:21;;;;;;;18.27;17.30;;;38.10;23.50;;;;;;4743720;30;20430;-57
2023/09/12 10:23:12;;;;;;;16.93;15.93;;;38.70;23.40;;;;;;4742739;30;20837;-58
2023/09/12 10:25:40;;;;;;;16.70;15.70;;;39.00;22.40;;;;;;4747956;30;20461;-57
2023/09/12 10:28:08;;;;;;;17.40;16.40;;;38.20;21.40;;;;;;4748486;30;20914;-57
2023/09/12 10:30:36;;;;;;;16.37;15.40;;;38.20;21.60;;;;;;4741537;30;20431;-57
2023/09/12 10:33:05;;;;;;;16.67;15.77;;;38.60;22.30;;;;;;4749064;30;20471;-57
2023/09/12 10:35:35;;;;;;;16.70;15.70;;;38.50;21.90;;;;;;4747524;30;20442;-57
2023/09/12 10:38:06;;;;;;;15.63;14.73;;;38.90;21.00;;;;;;4749573;30;20486;-58
2023/09/12 10:40:34;;;;;;;17.97;16.87;;;39.40;21.00;;;;;;4748791;30;20445;-58
2023/09/12 10:43:03;;;;;;;15.93;15.00;;;39.40;21.40;;;;;;4748780;30;20447;-57
2023/09/12 10:45:31;;;;;;;16.07;15.20;;;38.60;19.30;;;;;;4748874;30;20435;-58
2023/09/12 10:47:56;;;;;;;15.90;15.10;;;38.90;19.80;;;;;;4744564;30;20511;-58
2023/09/12 10:50:22;;;;;;;16.50;15.40;;;38.80;21.20;;;;;;4747730;30;20470;-53
2023/09/12 10:52:48;;;;;;;16.67;15.67;;;38.80;20.70;;;;;;4746422;30;20205;-58
2023/09/12 10:55:20;;;;;;;16.70;15.67;;;38.80;20.20;;;;;;4751758;30;20200;-58
2023/09/12 10:58:08;;;;;;;15.80;14.90;;;39.10;20.30;;;;;;4741138;30;20197;-57
2023/09/12 11:00:34;;;;;;;16.67;15.60;;;39.80;20.00;;;;;;4749317;30;20427;-55
2023/09/12 11:03:29;;;;;;;15.47;14.57;;;39.80;20.00;;;;;;4747392;30;20431;-55
2023/09/12 11:05:55;;;;;;;16.83;15.63;;;39.80;19.20;;;;;;4748050;30;20197;-55
2023/09/12 11:08:22;;;;;;;14.90;14.10;;;39.60;19.90;;;;;;4746620;30;20422;-56
2023/09/12 11:11:20;;;;;;;17.67;16.40;;;39.40;20.00;;;;;;4745030;30;20423;-57
2023/09/12 11:13:46;;;;;;;16.60;15.60;;;39.30;20.10;;;;;;4761557;30;20487;-57
2023/09/12 11:16:17;;;;;;;15.90;15.00;;;39.60;20.40;;;;;;4748507;30;20492;-57
2023/09/12 11:19:12;;;;;;;17.77;16.63;;;40.10;19.60;;;;;;4746871;30;20444;-57
2023/09/12 11:21:37;;;;;;;16.30;15.40;;;40.30;19.50;;;;;;4743203;30;20413;-57
2023/09/12 11:24:03;;;;;;;16.60;15.27;;;40.40;19.90;;;;;;4744144;30;20442;-56
2023/09/12 11:26:29;;;;;;;16.20;15.20;;;40.40;18.70;;;;;;4741485;30;20267;-56
2023/09/12 11:28:55;;;;;;;17.10;16.00;;;40.60;19.40;;;;;;4747025;30;20462;-57
2023/09/12 11:31:27;;;;;;;16.10;14.83;;;41.10;19.00;;;;;;4741533;30;20196;-58
2023/09/12 11:33:53;;;;;;;15.37;14.53;;;41.30;18.80;;;;;;4742222;30;20274;-58
2023/09/12 11:36:19;;;;;;;16.07;14.87;;;41.60;18.30;;;;;;4743168;30;20911;-56
2023/09/12 11:38:49;;;;;;;16.33;15.37;;;41.70;17.70;;;;;;4743839;30;20462;-57
2023/09/12 11:41:34;;;;;;;15.83;14.83;;;42.00;18.20;;;;;;4741741;30;20458;-58
2023/09/12 11:44:04;;;;;;;15.23;14.43;;;42.30;16.60;;;;;;4744793;30;21007;-57
2023/09/12 11:46:30;;;;;;;16.30;15.20;;;42.70;16.80;;;;;;4743872;30;20525;-57
2023/09/12 11:48:56;;;;;;;15.97;15.07;;;42.60;16.00;;;;;;4747322;30;20535;-57
2023/09/12 11:51:26;;;;;;;17.00;15.60;;;42.50;16.80;;;;;;4744678;30;20204;-55
2023/09/12 11:53:53;;;;;;;16.23;15.03;;;42.50;17.20;;;;;;4747334;30;20200;-57
2023/09/12 11:56:19;;;;;;;16.00;14.93;;;43.00;15.40;;;;;;4751718;30;20439;-57
2023/09/12 11:58:44;;;;;;;17.13;16.03;;;43.40;14.90;;;;;;4747516;30;20438;-57
2023/09/12 12:01:12;;;;;;;15.90;15.00;;;43.20;16.00;;;;;;4744700;30;20199;-58
2023/09/12 12:03:38;;;;;;;16.87;15.73;;;43.40;14.90;;;;;;4748378;30;20667;-55
2023/09/12 12:06:04;;;;;;;16.50;15.50;;;43.70;14.60;;;;;;4743688;30;20442;-57
2023/09/12 12:08:31;;;;;;;16.90;15.77;;;43.60;14.80;;;;;;4753550;30;20188;-56
2023/09/12 12:11:00;;;;;;;15.90;14.87;;;43.50;15.70;;;;;;4748142;30;20433;-57
2023/09/12 12:13:27;;;;;;;16.20;15.27;;;44.00;14.80;;;;;;4743685;30;20909;-57
2023/09/12 12:15:53;;;;;;;17.37;16.27;;;44.30;14.60;;;;;;4733582;30;20565;-58
2023/09/12 12:18:19;;;;;;;17.27;16.27;;;44.00;14.00;;;;;;4745146;30;20541;-56
2023/09/12 12:20:44;;;;;;;15.77;14.53;;;43.80;13.80;;;;;;4745700;30;20192;-56
2023/09/12 12:23:10;;;;;;;15.47;14.67;;;43.60;14.00;;;;;;4737773;30;20944;-50
2023/09/12 12:25:36;;;;;;;16.10;15.10;;;43.40;14.20;;;;;;4736051;30;20222;-56
2023/09/12 12:28:03;;;;;;;16.63;15.77;;;43.40;14.00;;;;;;4743441;30;20446;-57